Time;durP1;ratioP1;P1;durP2;ratioP2;P2;SDS_P1;SDS_P2;PMS_P1;PMS_P2;Temp;Humidity;BMP_temperature;BMP_pressure;BME280_temperature;BME280_humidity;BME280_pressure;Samples;Min_cycle;Max_cycle;Signal;HPM_P1;HPM_P2
2021/07/04 00:01:23;;;;;;;0.40;0.30;;;16.40;99.90;;;;;;5112830;28;20718;-84
2021/07/04 00:03:48;;;;;;;0.40;0.30;;;16.30;99.90;;;;;;5113046;28;20381;-85
2021/07/04 00:06:14;;;;;;;0.40;0.20;;;16.40;99.90;;;;;;5113397;28;20384;-84
2021/07/04 00:08:40;;;;;;;0.40;0.20;;;16.30;99.90;;;;;;5112215;28;20416;-82
2021/07/04 00:11:08;;;;;;;0.40;0.30;;;16.20;99.90;;;;;;5112720;28;20933;-85
2021/07/04 00:13:34;;;;;;;0.40;0.40;;;16.40;99.90;;;;;;5112315;28;20391;-82
2021/07/04 00:16:01;;;;;;;0.40;0.20;;;16.30;99.90;;;;;;5112815;28;20420;-82
2021/07/04 00:18:28;;;;;;;0.40;0.20;;;16.30;99.90;;;;;;5093996;28;20396;-83
2021/07/04 00:20:55;;;;;;;0.40;0.20;;;16.20;99.90;;;;;;5112538;28;20396;-83
2021/07/04 00:23:21;;;;;;;0.40;0.20;;;16.10;99.90;;;;;;5112316;28;20379;-82
2021/07/04 00:25:48;;;;;;;0.40;0.20;;;16.10;99.90;;;;;;5112508;28;20400;-80
2021/07/04 00:28:14;;;;;;;0.40;0.20;;;16.20;99.90;;;;;;5112439;28;20886;-80
2021/07/04 00:30:40;;;;;;;0.40;0.40;;;16.20;99.90;;;;;;5112164;28;20844;-81
2021/07/04 00:33:06;;;;;;;0.40;0.20;;;16.30;99.90;;;;;;5112564;28;20373;-81
2021/07/04 00:35:33;;;;;;;0.40;0.20;;;16.30;99.90;;;;;;5112188;28;20875;-82
2021/07/04 00:37:59;;;;;;;0.40;0.20;;;16.20;99.90;;;;;;5112068;28;20383;-82
2021/07/04 00:40:26;;;;;;;0.40;0.20;;;16.50;99.90;;;;;;5111770;28;20380;-82
2021/07/04 00:42:53;;;;;;;0.40;0.20;;;16.20;99.90;;;;;;5112302;28;20732;-82
2021/07/04 00:45:21;;;;;;;0.40;0.20;;;16.20;99.90;;;;;;5112081;28;20365;-87
2021/07/04 00:47:48;;;;;;;0.40;0.20;;;16.40;99.90;;;;;;5111789;28;20929;-82
2021/07/04 00:50:16;;;;;;;0.40;0.20;;;16.20;99.90;;;;;;5112138;28;20373;-82
2021/07/04 00:52:43;;;;;;;0.40;0.20;;;16.30;99.90;;;;;;5078217;28;20497;-82
2021/07/04 00:55:11;;;;;;;0.40;0.20;;;16.30;99.90;;;;;;5091740;28;20386;-83
2021/07/04 00:57:37;;;;;;;0.40;0.20;;;16.30;99.90;;;;;;5091082;28;20397;-83
2021/07/04 01:00:09;;;;;;;0.40;0.20;;;16.20;99.90;;;;;;5090536;28;20855;-83
2021/07/04 01:02:34;;;;;;;0.40;0.20;;;16.30;99.90;;;;;;5090856;28;20394;-82
2021/07/04 01:05:00;;;;;;;0.40;0.40;;;16.30;99.90;;;;;;5091613;28;20397;-83
2021/07/04 01:07:26;;;;;;;0.40;0.20;;;16.50;99.90;;;;;;5090891;28;20424;-83
2021/07/04 01:09:53;;;;;;;0.40;0.30;;;16.20;99.90;;;;;;5073888;28;20394;-82
2021/07/04 01:12:19;;;;;;;0.40;0.22;;;16.30;99.90;;;;;;5073577;28;20417;-82
2021/07/04 01:14:45;;;;;;;0.40;0.20;;;16.30;99.90;;;;;;5091220;28;20382;-83
2021/07/04 01:17:11;;;;;;;0.40;0.20;;;16.30;99.90;;;;;;5073247;28;20476;-83
2021/07/04 01:19:37;;;;;;;0.40;0.25;;;16.40;99.90;;;;;;5090653;28;20470;-82
2021/07/04 01:22:04;;;;;;;0.40;0.20;;;16.30;99.90;;;;;;5072890;28;20401;-82
2021/07/04 01:24:30;;;;;;;0.40;0.20;;;16.30;99.90;;;;;;5090361;28;20378;-83
2021/07/04 01:26:55;;;;;;;0.40;0.20;;;16.50;99.90;;;;;;5090683;28;20433;-83
2021/07/04 01:29:21;;;;;;;0.40;0.30;;;16.40;99.90;;;;;;5090860;28;20449;-88
2021/07/04 01:31:47;;;;;;;0.40;0.20;;;16.30;99.90;;;;;;5090975;28;20449;-83
2021/07/04 01:34:13;;;;;;;0.40;0.20;;;16.20;99.90;;;;;;5072674;28;20421;-83
2021/07/04 01:36:40;;;;;;;0.40;0.30;;;16.40;99.90;;;;;;5072354;28;20874;-82
2021/07/04 01:39:06;;;;;;;0.40;0.30;;;16.40;99.90;;;;;;5072587;28;20382;-83
2021/07/04 01:41:35;;;;;;;0.40;0.20;;;16.30;99.90;;;;;;5090083;28;20914;-83
2021/07/04 01:44:01;;;;;;;0.40;0.30;;;16.30;99.90;;;;;;5090435;28;20387;-83
2021/07/04 01:46:27;;;;;;;0.40;0.20;;;16.40;99.90;;;;;;5090156;28;20412;-83
2021/07/04 01:48:53;;;;;;;0.40;0.20;;;16.30;99.90;;;;;;5090664;28;20382;-83
2021/07/04 01:51:18;;;;;;;0.40;0.20;;;16.30;99.90;;;;;;5094125;28;20411;-82
2021/07/04 01:53:44;;;;;;;0.40;0.30;;;16.40;99.90;;;;;;5110710;28;20387;-83
2021/07/04 01:56:10;;;;;;;0.40;0.20;;;16.50;99.90;;;;;;5111760;28;20387;-83
2021/07/04 01:58:38;;;;;;;0.40;0.20;;;16.50;99.90;;;;;;5110353;28;20732;-83
2021/07/04 02:01:05;;;;;;;0.40;0.30;;;16.30;99.90;;;;;;5111352;28;20384;-83
2021/07/04 02:03:31;;;;;;;0.40;0.20;;;16.40;99.90;;;;;;5110625;28;20376;-83
2021/07/04 02:05:57;;;;;;;0.40;0.20;;;16.40;99.90;;;;;;5111267;28;20893;-83
2021/07/04 02:08:24;;;;;;;0.40;0.20;;;16.10;99.90;;;;;;5092912;28;20710;-83
2021/07/04 02:10:49;;;;;;;0.40;0.20;;;16.30;99.90;;;;;;5113910;28;20368;-83
2021/07/04 02:13:15;;;;;;;0.40;0.20;;;16.40;99.90;;;;;;5115140;28;20379;-84
2021/07/04 02:15:41;;;;;;;0.40;0.20;;;16.20;99.90;;;;;;5114408;28;20400;-84
2021/07/04 02:18:12;;;;;;;0.40;0.20;;;16.30;99.90;;;;;;5115256;28;20479;-84
2021/07/04 02:20:43;;;;;;;0.40;0.20;;;16.40;99.90;;;;;;5114471;28;20728;-84
2021/07/04 02:23:15;;;;;;;0.40;0.20;;;16.40;99.90;;;;;;5115462;28;20369;-83
2021/07/04 02:25:43;;;;;;;0.40;0.20;;;16.30;99.90;;;;;;5114325;28;20409;-83
2021/07/04 02:28:10;;;;;;;0.40;0.20;;;16.50;99.90;;;;;;5115401;28;20373;-83
2021/07/04 02:30:37;;;;;;;0.40;0.30;;;16.20;99.90;;;;;;5114638;28;20440;-83
2021/07/04 02:33:06;;;;;;;0.40;0.20;;;16.20;99.90;;;;;;5115196;28;20493;-83
2021/07/04 02:35:34;;;;;;;0.40;0.20;;;16.30;99.90;;;;;;5114498;28;20380;-83
2021/07/04 02:38:01;;;;;;;0.40;0.20;;;16.20;99.90;;;;;;5114788;28;20517;-83
2021/07/04 02:40:27;;;;;;;0.40;0.20;;;16.30;99.90;;;;;;5114431;28;20380;-84
2021/07/04 02:42:54;;;;;;;0.40;0.20;;;16.20;99.90;;;;;;5115104;28;20388;-83
2021/07/04 02:45:20;;;;;;;0.40;0.20;;;16.20;99.90;;;;;;5114831;28;20434;-82
2021/07/04 02:47:46;;;;;;;0.40;0.20;;;16.20;99.90;;;;;;5114135;28;20757;-83
2021/07/04 02:50:12;;;;;;;0.40;0.20;;;16.10;99.90;;;;;;5114827;28;20486;-82
2021/07/04 02:52:38;;;;;;;0.40;0.30;;;16.20;99.90;;;;;;5099841;28;20412;-83
2021/07/04 02:55:08;;;;;;;0.40;0.27;;;16.20;99.90;;;;;;5093999;28;20385;-83
2021/07/04 02:57:34;;;;;;;0.40;0.30;;;16.20;99.90;;;;;;5093434;28;20885;-83
2021/07/04 03:00:00;;;;;;;0.40;0.20;;;16.00;99.90;;;;;;5094273;28;20377;-82
2021/07/04 03:02:27;;;;;;;0.40;0.20;;;16.10;99.90;;;;;;5094031;28;20782;-82
2021/07/04 03:04:53;;;;;;;0.40;0.20;;;16.10;99.90;;;;;;5093988;28;20920;-82
2021/07/04 03:07:19;;;;;;;0.40;0.20;;;16.00;99.90;;;;;;5094240;28;20742;-82
2021/07/04 03:09:45;;;;;;;0.40;0.20;;;16.00;99.90;;;;;;5093521;28;20406;-82
2021/07/04 03:12:11;;;;;;;0.40;0.20;;;16.50;99.90;;;;;;5094053;28;20895;-82
2021/07/04 03:14:37;;;;;;;0.40;0.20;;;16.00;99.90;;;;;;5093078;28;20730;-82
2021/07/04 03:17:03;;;;;;;0.40;0.20;;;16.00;99.90;;;;;;5094152;28;20390;-82
2021/07/04 03:19:31;;;;;;;0.40;0.20;;;16.00;99.90;;;;;;5093033;28;20862;-83
2021/07/04 03:21:57;;;;;;;0.40;0.20;;;16.10;99.90;;;;;;5093133;28;20458;-82
2021/07/04 03:24:22;;;;;;;0.40;0.20;;;16.10;99.90;;;;;;5093780;28;20937;-82
2021/07/04 03:26:48;;;;;;;0.40;0.20;;;16.00;99.90;;;;;;5093214;28;20646;-82
2021/07/04 03:29:14;;;;;;;0.40;0.20;;;16.00;99.90;;;;;;5093689;28;20378;-82
2021/07/04 03:31:40;;;;;;;0.40;0.20;;;16.10;99.90;;;;;;5093151;28;20455;-82
2021/07/04 03:34:06;;;;;;;0.40;0.30;;;16.10;99.90;;;;;;5093666;28;20378;-82
2021/07/04 03:36:31;;;;;;;0.60;0.60;;;16.20;99.90;;;;;;5093008;28;20458;-83
2021/07/04 03:38:57;;;;;;;0.40;0.22;;;16.00;99.90;;;;;;5093604;28;20378;-82
2021/07/04 03:41:23;;;;;;;0.40;0.20;;;16.00;99.90;;;;;;5093797;28;20826;-82
2021/07/04 03:43:48;;;;;;;0.40;0.20;;;16.00;99.90;;;;;;5092894;28;20382;-82
2021/07/04 03:46:14;;;;;;;0.40;0.20;;;16.00;99.90;;;;;;5093219;28;20800;-82
2021/07/04 03:48:40;;;;;;;0.40;0.30;;;15.90;99.90;;;;;;5074753;28;20455;-83
2021/07/04 03:51:06;;;;;;;0.40;0.30;;;15.90;99.90;;;;;;5094808;28;20413;-82
2021/07/04 03:53:31;;;;;;;0.40;0.20;;;16.00;99.90;;;;;;5094815;28;20384;-83
2021/07/04 03:55:57;;;;;;;0.40;0.20;;;15.90;99.90;;;;;;5113491;28;20398;-82
2021/07/04 03:58:23;;;;;;;0.40;0.20;;;16.00;99.90;;;;;;5113893;28;20488;-82
2021/07/04 04:00:49;;;;;;;0.40;0.20;;;16.10;99.90;;;;;;5112900;28;20369;-82
2021/07/04 04:03:14;;;;;;;0.40;0.30;;;16.00;99.90;;;;;;5113599;28;20376;-82
2021/07/04 04:05:40;;;;;;;0.40;0.20;;;16.00;99.90;;;;;;5112941;28;20966;-82
2021/07/04 04:08:13;;;;;;;0.40;0.35;;;16.00;99.90;;;;;;5095981;28;20376;-82
2021/07/04 04:10:38;;;;;;;0.40;0.20;;;16.00;99.90;;;;;;5096184;28;20433;-81
2021/07/04 04:13:04;;;;;;;0.40;0.20;;;16.00;99.90;;;;;;5113362;28;20951;-82
2021/07/04 04:15:30;;;;;;;0.40;0.20;;;16.00;99.90;;;;;;5113231;28;20732;-83
2021/07/04 04:17:57;;;;;;;0.40;0.20;;;15.90;99.90;;;;;;5094481;28;20389;-83
2021/07/04 04:20:23;;;;;;;0.40;0.20;;;16.20;99.90;;;;;;5113132;28;20380;-83
2021/07/04 04:22:49;;;;;;;0.40;0.20;;;16.00;99.90;;;;;;5094360;28;20385;-83
2021/07/04 04:25:15;;;;;;;0.40;0.20;;;16.00;99.90;;;;;;5112817;28;20372;-83
2021/07/04 04:27:40;;;;;;;0.40;0.20;;;16.00;99.90;;;;;;5112605;28;20406;-83
2021/07/04 04:30:07;;;;;;;0.40;0.28;;;16.20;99.90;;;;;;5112968;28;20384;-83
2021/07/04 04:32:33;;;;;;;0.40;0.20;;;16.20;99.90;;;;;;5112332;28;20819;-84
2021/07/04 04:34:59;;;;;;;0.40;0.20;;;16.20;99.90;;;;;;5112889;28;20412;-83
2021/07/04 04:37:24;;;;;;;0.40;0.30;;;16.10;99.90;;;;;;5113001;28;20400;-83
2021/07/04 04:39:50;;;;;;;0.40;0.20;;;16.30;99.90;;;;;;5112326;28;20376;-84
2021/07/04 04:42:15;;;;;;;0.40;0.20;;;16.30;99.90;;;;;;5113080;28;20373;-83
2021/07/04 04:44:41;;;;;;;0.40;0.20;;;16.20;99.90;;;;;;5112303;28;20895;-84
2021/07/04 04:47:07;;;;;;;0.40;0.30;;;16.40;99.90;;;;;;5112695;28;20392;-83
2021/07/04 04:49:34;;;;;;;0.40;0.23;;;16.10;99.90;;;;;;5112479;28;20384;-83
2021/07/04 04:52:00;;;;;;;0.40;0.40;;;16.30;99.90;;;;;;5103204;28;20420;-83
2021/07/04 04:54:25;;;;;;;0.40;0.20;;;16.20;99.90;;;;;;5092208;28;20382;-83
2021/07/04 04:56:51;;;;;;;0.45;0.35;;;16.40;99.90;;;;;;5091777;28;20522;-84
2021/07/04 04:59:16;;;;;;;0.40;0.23;;;16.30;99.90;;;;;;5092483;28;20379;-83
2021/07/04 05:01:42;;;;;;;0.40;0.20;;;16.10;99.90;;;;;;5091456;28;20461;-83
2021/07/04 05:04:09;;;;;;;0.40;0.20;;;16.10;99.90;;;;;;5092094;28;20388;-83
2021/07/04 05:06:35;;;;;;;0.45;0.35;;;16.10;99.90;;;;;;5091326;28;20375;-88
2021/07/04 05:09:01;;;;;;;0.40;0.20;;;16.10;99.90;;;;;;5091933;28;20378;-83
2021/07/04 05:11:27;;;;;;;0.40;0.20;;;16.20;99.90;;;;;;5092068;28;20405;-82
2021/07/04 05:13:53;;;;;;;0.40;0.20;;;16.20;99.90;;;;;;5091316;28;20374;-82
2021/07/04 05:16:19;;;;;;;0.40;0.20;;;16.30;99.90;;;;;;5092022;28;20818;-81
2021/07/04 05:18:45;;;;;;;0.40;0.20;;;16.40;99.90;;;;;;5073152;28;20386;-81
2021/07/04 05:21:10;;;;;;;0.40;0.20;;;16.50;99.90;;;;;;5091755;28;20431;-82
2021/07/04 05:23:36;;;;;;;0.40;0.20;;;16.70;99.90;;;;;;5091647;28;20382;-86
2021/07/04 05:26:02;;;;;;;0.40;0.20;;;16.70;99.90;;;;;;5091862;28;20493;-82
2021/07/04 05:28:28;;;;;;;0.40;0.20;;;16.90;99.90;;;;;;5091776;28;20382;-82
2021/07/04 05:30:55;;;;;;;0.40;0.20;;;16.90;99.90;;;;;;5093631;28;20390;-83
2021/07/04 05:33:21;;;;;;;0.40;0.20;;;16.90;99.90;;;;;;5108773;28;20380;-82
2021/07/04 05:35:47;;;;;;;0.40;0.20;;;17.00;99.90;;;;;;5072450;28;20425;-82
2021/07/04 05:38:20;;;;;;;0.40;0.20;;;17.00;99.90;;;;;;5073484;28;20908;-81
2021/07/04 05:40:50;;;;;;;0.40;0.30;;;17.10;99.90;;;;;;5091010;28;20427;-83
2021/07/04 05:43:16;;;;;;;0.40;0.20;;;17.10;99.90;;;;;;5091550;28;20389;-81
2021/07/04 05:45:42;;;;;;;0.50;0.50;;;17.20;99.90;;;;;;5072097;28;20394;-83
2021/07/04 05:48:07;;;;;;;0.40;0.20;;;17.30;99.90;;;;;;5091264;28;20382;-82
2021/07/04 05:50:33;;;;;;;0.40;0.27;;;17.20;99.90;;;;;;5073527;28;20855;-82
2021/07/04 05:52:58;;;;;;;0.40;0.20;;;17.30;99.90;;;;;;5072541;28;20416;-80
2021/07/04 05:55:24;;;;;;;0.40;0.20;;;17.30;99.90;;;;;;5091410;28;20373;-82
2021/07/04 05:57:50;;;;;;;0.40;0.20;;;17.40;99.90;;;;;;5090764;28;20378;-82
2021/07/04 06:00:16;;;;;;;0.40;0.30;;;17.40;99.90;;;;;;5091509;28;20409;-82
2021/07/04 06:02:42;;;;;;;0.40;0.20;;;17.50;99.90;;;;;;5091031;28;20396;-82
2021/07/04 06:05:08;;;;;;;0.40;0.22;;;17.60;99.90;;;;;;5094473;28;20388;-81
2021/07/04 06:07:35;;;;;;;0.40;0.30;;;17.50;99.90;;;;;;5099061;28;20464;-81
2021/07/04 06:10:02;;;;;;;0.40;0.20;;;17.60;99.90;;;;;;5106240;28;20872;-82
2021/07/04 06:12:28;;;;;;;0.40;0.20;;;17.70;99.90;;;;;;5100859;28;20411;-82
2021/07/04 06:14:54;;;;;;;0.40;0.27;;;17.80;99.90;;;;;;5100488;28;20382;-81
2021/07/04 06:17:19;;;;;;;0.40;0.30;;;18.00;99.90;;;;;;5105743;28;20380;-81
2021/07/04 06:19:45;;;;;;;0.40;0.20;;;18.00;99.90;;;;;;5093893;28;20382;-80
2021/07/04 06:22:11;;;;;;;0.40;0.20;;;18.10;99.90;;;;;;5106238;28;20865;-81
2021/07/04 06:24:36;;;;;;;0.40;0.20;;;18.00;99.90;;;;;;5099483;28;20421;-82
2021/07/04 06:27:02;;;;;;;0.40;0.20;;;18.10;99.90;;;;;;5098163;28;20742;-83
2021/07/04 06:29:28;;;;;;;0.40;0.30;;;18.20;99.90;;;;;;5106726;28;20385;-82
2021/07/04 06:31:53;;;;;;;0.40;0.20;;;18.20;99.90;;;;;;5093656;28;20754;-83
2021/07/04 06:34:19;;;;;;;0.40;0.20;;;18.20;99.90;;;;;;5103684;28;20900;-82
2021/07/04 06:36:45;;;;;;;0.40;0.20;;;18.40;99.90;;;;;;5099675;28;20852;-83
2021/07/04 06:39:10;;;;;;;0.60;0.50;;;18.40;99.90;;;;;;5100835;28;20386;-83
2021/07/04 06:41:36;;;;;;;0.40;0.20;;;18.40;99.90;;;;;;5091333;28;20417;-83
2021/07/04 06:44:02;;;;;;;0.40;0.20;;;18.40;99.90;;;;;;5088592;28;20480;-83
2021/07/04 06:46:28;;;;;;;0.40;0.20;;;18.30;99.90;;;;;;5092921;28;20392;-81
2021/07/04 06:48:54;;;;;;;0.40;0.30;;;18.40;99.90;;;;;;5110425;28;20376;-83
2021/07/04 06:51:19;;;;;;;0.40;0.25;;;18.50;99.90;;;;;;5105594;28;20406;-84
2021/07/04 06:53:45;;;;;;;0.40;0.20;;;18.50;99.90;;;;;;5072208;28;20393;-83
2021/07/04 06:56:11;;;;;;;0.40;0.30;;;18.50;99.90;;;;;;5090657;28;20374;-83
2021/07/04 06:58:36;;;;;;;0.40;0.30;;;18.70;99.90;;;;;;5094230;28;20381;-83
2021/07/04 07:01:03;;;;;;;0.40;0.25;;;18.80;99.90;;;;;;5093955;28;20398;-83
2021/07/04 07:03:28;;;;;;;0.40;0.30;;;18.90;99.90;;;;;;5094342;28;20410;-83
2021/07/04 07:05:54;;;;;;;0.40;0.20;;;18.90;99.90;;;;;;5093900;28;20884;-82
2021/07/04 07:08:20;;;;;;;0.40;0.20;;;18.90;99.90;;;;;;5081250;28;20382;-82
2021/07/04 07:10:45;;;;;;;0.40;0.30;;;18.90;99.90;;;;;;5114074;28;20855;-82
2021/07/04 07:13:11;;;;;;;0.40;0.20;;;18.90;99.90;;;;;;5114281;28;20404;-83
2021/07/04 07:15:37;;;;;;;0.40;0.30;;;18.90;99.90;;;;;;5114267;28;20372;-83
2021/07/04 07:18:02;;;;;;;0.40;0.20;;;19.00;99.90;;;;;;5113537;28;20380;-81
2021/07/04 07:20:28;;;;;;;0.40;0.20;;;19.20;99.90;;;;;;5114506;28;20759;-83
2021/07/04 07:22:54;;;;;;;0.40;0.20;;;19.40;99.90;;;;;;5105906;28;20483;-83
2021/07/04 07:25:19;;;;;;;0.40;0.20;;;19.40;99.90;;;;;;5094895;28;20427;-82
2021/07/04 07:27:45;;;;;;;0.40;0.30;;;19.20;99.90;;;;;;5093078;28;20511;-83
2021/07/04 07:30:12;;;;;;;0.40;0.20;;;19.30;99.90;;;;;;5094136;28;20386;-83
2021/07/04 07:32:39;;;;;;;0.40;0.30;;;19.70;99.90;;;;;;5093361;28;20916;-81
2021/07/04 07:35:07;;;;;;;0.40;0.30;;;19.60;99.90;;;;;;5093119;28;20392;-81
2021/07/04 07:37:33;;;;;;;0.40;0.20;;;19.60;99.90;;;;;;5093191;28;20745;-82
2021/07/04 07:39:59;;;;;;;0.40;0.20;;;19.80;99.90;;;;;;5091859;28;20390;-83
2021/07/04 07:42:24;;;;;;;0.40;0.30;;;19.80;99.90;;;;;;5080985;28;20400;-84
2021/07/04 07:44:50;;;;;;;0.40;0.20;;;19.80;99.90;;;;;;5097330;27;20446;-83
2021/07/04 07:47:16;;;;;;;0.40;0.30;;;19.60;99.90;;;;;;5075229;28;20397;-83
2021/07/04 07:49:42;;;;;;;0.40;0.30;;;19.50;99.90;;;;;;5098695;28;20400;-83
2021/07/04 07:52:08;;;;;;;0.40;0.30;;;19.60;99.90;;;;;;5095810;28;20496;-83
2021/07/04 07:54:34;;;;;;;0.40;0.30;;;19.40;99.90;;;;;;5082352;28;20460;-82
2021/07/04 07:57:02;;;;;;;0.40;0.30;;;19.80;99.90;;;;;;5080728;28;20906;-83
2021/07/04 07:59:29;;;;;;;0.40;0.25;;;20.00;99.90;;;;;;5102501;28;20429;-83
2021/07/04 08:01:55;;;;;;;0.50;0.40;;;;;;;;;;5093352;28;20389;-84
2021/07/04 08:04:20;;;;;;;0.40;0.20;;;20.00;99.90;;;;;;5080024;28;20370;-83
2021/07/04 08:06:46;;;;;;;0.40;0.20;;;20.30;99.90;;;;;;5094208;28;20381;-88
2021/07/04 08:09:12;;;;;;;0.40;0.20;;;20.00;99.90;;;;;;5075335;27;20382;-87
2021/07/04 08:11:38;;;;;;;0.40;0.20;;;20.40;99.90;;;;;;5050860;28;21714;-86
2021/07/04 08:14:03;;;;;;;0.40;0.30;;;20.40;99.90;;;;;;5074559;27;20392;-83
2021/07/04 08:16:29;;;;;;;0.40;0.20;;;20.20;99.90;;;;;;5096472;27;20390;-83
2021/07/04 08:18:55;;;;;;;0.40;0.30;;;20.50;99.90;;;;;;5100142;28;20388;-85
2021/07/04 08:21:21;;;;;;;0.40;0.20;;;20.50;99.90;;;;;;5081512;27;20740;-87
2021/07/04 08:23:46;;;;;;;0.40;0.20;;;20.40;99.90;;;;;;5049160;28;20550;-82
2021/07/04 08:26:12;;;;;;;0.40;0.30;;;20.50;99.90;;;;;;5094917;28;20433;-82
2021/07/04 08:28:38;;;;;;;0.40;0.20;;;20.60;99.90;;;;;;5106261;28;20395;-82
2021/07/04 08:31:03;;;;;;;0.40;0.30;;;20.60;99.90;;;;;;5103347;28;20433;-80
2021/07/04 08:33:29;;;;;;;0.40;0.30;;;20.70;99.90;;;;;;5112080;28;20368;-80
2021/07/04 08:35:55;;;;;;;0.40;0.20;;;20.80;99.90;;;;;;5111554;28;20376;-83
2021/07/04 08:38:21;;;;;;;0.40;0.30;;;20.70;99.90;;;;;;5112001;28;20377;-83
2021/07/04 08:40:48;;;;;;;0.40;0.30;;;20.90;99.90;;;;;;5111479;28;20463;-81
2021/07/04 08:43:25;;;;;;;0.40;0.30;;;20.90;99.90;;;;;;5112417;28;20430;-83
2021/07/04 08:45:51;;;;;;;0.40;0.30;;;21.00;99.90;;;;;;5104937;28;20374;-82
2021/07/04 08:48:16;;;;;;;0.40;0.20;;;21.10;99.90;;;;;;5097939;28;20436;-82
2021/07/04 08:50:42;;;;;;;0.40;0.30;;;21.00;99.90;;;;;;5101771;28;20400;-83
2021/07/04 08:53:08;;;;;;;0.40;0.30;;;21.00;99.90;;;;;;5081624;28;20443;-81
2021/07/04 08:55:33;;;;;;;0.40;0.20;;;21.00;99.90;;;;;;5099766;28;20945;-86
2021/07/04 08:57:59;;;;;;;0.40;0.20;;;20.90;99.90;;;;;;5100377;28;20473;-80
2021/07/04 09:00:26;;;;;;;0.40;0.30;;;21.00;99.90;;;;;;5101553;28;20460;-83
2021/07/04 09:02:52;;;;;;;0.40;0.20;;;21.00;99.90;;;;;;5105070;28;20900;-85
2021/07/04 09:05:21;;;;;;;0.40;0.20;;;21.00;99.90;;;;;;5102834;28;20463;-82
2021/07/04 09:07:50;;;;;;;0.40;0.30;;;21.00;99.90;;;;;;5080538;28;20946;-88
2021/07/04 09:10:19;;;;;;;0.40;0.30;;;20.80;99.90;;;;;;5103070;28;20378;-84
2021/07/04 09:12:53;;;;;;;0.40;0.30;;;20.90;99.90;;;;;;5101370;28;20404;-84
2021/07/04 09:15:21;;;;;;;0.40;0.30;;;20.90;99.90;;;;;;5081745;28;20392;-83
2021/07/04 09:17:50;;;;;;;0.40;0.30;;;20.90;99.90;;;;;;5102314;28;20393;-82
2021/07/04 09:20:21;;;;;;;0.40;0.20;;;20.90;99.90;;;;;;5099097;28;20743;-82
2021/07/04 09:22:54;;;;;;;0.40;0.20;;;21.00;99.90;;;;;;5102092;28;20385;-83
2021/07/04 09:25:23;;;;;;;0.40;0.20;;;21.10;99.90;;;;;;5099320;28;20404;-81
2021/07/04 09:28:18;;;;;;;0.40;0.20;;;21.10;99.90;;;;;;5101819;28;20719;-86
2021/07/04 09:30:50;;;;;;;0.40;0.20;;;21.20;99.90;;;;;;5101792;28;20389;-83
2021/07/04 09:33:20;;;;;;;0.40;0.30;;;21.20;99.90;;;;;;5099851;28;20766;-83
2021/07/04 09:35:59;;;;;;;0.40;0.20;;;21.20;99.90;;;;;;5101031;28;20411;-84
2021/07/04 09:38:35;;;;;;;0.40;0.30;;;21.30;99.90;;;;;;5099534;28;20417;-81
2021/07/04 09:41:02;;;;;;;0.40;0.20;;;21.20;99.90;;;;;;5102846;28;20368;-82
2021/07/04 09:43:32;;;;;;;0.40;0.30;;;21.30;99.90;;;;;;5099939;28;20892;-82
2021/07/04 09:46:00;;;;;;;0.40;0.20;;;21.40;99.90;;;;;;5080977;28;20394;-81
2021/07/04 09:48:28;;;;;;;0.40;0.20;;;21.50;99.90;;;;;;5099173;28;20432;-82
2021/07/04 09:51:09;;;;;;;0.40;0.30;;;21.60;99.90;;;;;;5100585;28;20433;-82
2021/07/04 09:53:35;;;;;;;0.40;0.30;;;21.60;99.90;;;;;;5083569;28;20397;-83
2021/07/04 09:56:30;;;;;;;0.40;0.30;;;21.70;99.90;;;;;;5101452;28;20937;-82
2021/07/04 09:59:05;;;;;;;0.40;0.20;;;21.70;99.90;;;;;;5099708;28;20386;-82
2021/07/04 10:01:39;;;;;;;0.40;0.30;;;21.70;99.90;;;;;;5100524;28;20469;-81
2021/07/04 10:04:08;;;;;;;0.40;0.30;;;21.60;99.90;;;;;;5099352;28;20469;-82
2021/07/04 10:06:54;;;;;;;0.40;0.20;;;21.70;99.90;;;;;;5101149;28;20429;-82
2021/07/04 10:09:21;;;;;;;0.40;0.20;;;21.60;99.90;;;;;;5098318;28;20890;-81
2021/07/04 10:11:48;;;;;;;0.40;0.20;;;21.80;99.90;;;;;;5099255;28;20419;-82
2021/07/04 10:14:17;;;;;;;0.40;0.20;;;21.80;99.90;;;;;;5098078;28;20406;-81
2021/07/04 10:16:44;;;;;;;0.40;0.30;;;21.80;99.90;;;;;;5101803;28;20470;-81
2021/07/04 10:19:16;;;;;;;0.40;0.20;;;21.80;99.90;;;;;;5101206;28;20433;-82
2021/07/04 10:21:48;;;;;;;0.40;0.20;;;22.00;99.90;;;;;;5101497;28;20378;-82
2021/07/04 10:24:14;;;;;;;0.40;0.30;;;21.90;99.90;;;;;;5099575;28;20378;-82
2021/07/04 10:26:42;;;;;;;0.40;0.20;;;22.10;99.90;;;;;;5100482;28;20517;-84
2021/07/04 10:29:11;;;;;;;0.40;0.20;;;22.10;99.90;;;;;;5101034;28;20874;-82
2021/07/04 10:31:37;;;;;;;0.40;0.20;;;22.00;99.90;;;;;;5101223;28;20404;-84
2021/07/04 10:34:14;;;;;;;0.40;0.20;;;22.00;99.90;;;;;;5105098;28;20373;-85
2021/07/04 10:36:52;;;;;;;0.40;0.20;;;22.00;99.90;;;;;;5102231;28;20876;-83
2021/07/04 10:39:18;;;;;;;0.40;0.30;;;22.20;99.90;;;;;;5086500;28;20475;-82
2021/07/04 10:42:01;;;;;;;0.40;0.22;;;22.00;99.90;;;;;;5106108;28;20905;-83
2021/07/04 10:44:50;;;;;;;0.40;0.30;;;22.20;99.90;;;;;;5102514;28;20885;-81
2021/07/04 10:47:21;;;;;;;0.40;0.20;;;22.30;99.90;;;;;;5092807;28;20443;-82
2021/07/04 10:49:55;;;;;;;0.40;0.20;;;22.60;99.90;;;;;;5102010;28;20472;-82
2021/07/04 10:52:37;;;;;;;0.40;0.20;;;22.90;99.90;;;;;;5105011;28;20498;-82
2021/07/04 10:55:12;;;;;;;0.40;0.30;;;22.80;99.90;;;;;;5101608;28;20445;-85
2021/07/04 10:57:50;;;;;;;0.40;0.20;;;22.70;99.90;;;;;;5100092;28;20382;-84
2021/07/04 11:00:17;;;;;;;0.40;0.30;;;22.80;99.90;;;;;;5086938;28;20399;-83
2021/07/04 11:03:04;;;;;;;0.40;0.30;;;22.80;99.90;;;;;;5086148;28;20390;-81
2021/07/04 11:05:36;;;;;;;0.40;0.30;;;22.90;99.30;;;;;;5105051;28;20378;-89
2021/07/04 11:08:01;;;;;;;0.40;0.28;;;23.10;98.80;;;;;;5104685;28;20377;-79
2021/07/04 11:10:31;;;;;;;0.40;0.30;;;23.10;97.60;;;;;;5101959;28;20383;-85
2021/07/04 11:13:19;;;;;;;0.40;0.30;;;23.10;99.20;;;;;;5102167;28;20811;-82
2021/07/04 11:15:50;;;;;;;0.40;0.30;;;23.20;99.00;;;;;;5086534;28;20471;-83
2021/07/04 11:18:17;;;;;;;0.40;0.20;;;23.20;98.80;;;;;;5086011;28;20392;-85
2021/07/04 11:20:52;;;;;;;0.40;0.30;;;23.20;99.10;;;;;;5085547;28;20425;-83
2021/07/04 11:23:22;;;;;;;0.40;0.30;;;23.10;99.60;;;;;;5102587;28;20469;-82
2021/07/04 11:25:51;;;;;;;0.40;0.30;;;22.90;97.20;;;;;;5102711;28;20404;-83
2021/07/04 11:28:17;;;;;;;0.40;0.20;;;23.00;97.80;;;;;;5102320;28;20386;-83
2021/07/04 11:30:53;;;;;;;0.50;0.50;;;23.10;97.70;;;;;;5103755;28;20380;-80
2021/07/04 11:33:32;;;;;;;0.40;0.20;;;23.40;98.50;;;;;;5101570;28;20408;-83
2021/07/04 11:36:28;;;;;;;0.40;0.30;;;23.60;97.70;;;;;;5101384;28;20895;-83
2021/07/04 11:39:08;;;;;;;0.40;0.20;;;23.90;96.70;;;;;;5105101;28;20762;-87
2021/07/04 11:41:36;;;;;;;0.40;0.20;;;24.00;97.10;;;;;;5103951;28;20395;-82
2021/07/04 11:44:14;;;;;;;0.40;0.30;;;24.20;95.80;;;;;;5083094;28;20777;-86
2021/07/04 11:46:51;;;;;;;0.60;0.40;;;24.90;94.60;;;;;;5102403;28;20421;-81
2021/07/04 11:49:27;;;;;;;0.40;0.30;;;25.40;94.50;;;;;;5100965;28;20907;-85
2021/07/04 11:51:54;;;;;;;0.40;0.30;;;25.70;93.10;;;;;;5102285;28;20451;-88
2021/07/04 11:54:31;;;;;;;0.40;0.30;;;26.00;91.40;;;;;;5086011;28;20427;-85
2021/07/04 11:59:55;;;;;;;0.40;0.20;;;25.60;90.10;;;;;;5103502;28;20374;-86
2021/07/04 12:02:21;;;;;;;0.40;0.30;;;25.30;90.00;;;;;;5081975;28;20393;-87
2021/07/04 12:04:47;;;;;;;0.40;0.20;;;25.40;90.50;;;;;;5103649;28;20444;-87
2021/07/04 12:07:15;;;;;;;0.40;0.30;;;25.10;91.80;;;;;;5086065;28;20376;-86
2021/07/04 12:09:52;;;;;;;0.40;0.20;;;24.60;90.70;;;;;;5102649;28;20378;-82
2021/07/04 12:12:19;;;;;;;0.40;0.30;;;24.30;91.20;;;;;;5101901;28;20402;-87
2021/07/04 12:15:09;;;;;;;0.40;0.20;;;23.90;91.60;;;;;;5102792;28;20411;-84
2021/07/04 12:17:40;;;;;;;0.40;0.30;;;23.80;92.30;;;;;;5091978;28;20407;-86
2021/07/04 12:20:21;;;;;;;0.40;0.30;;;23.90;92.40;;;;;;5084282;28;20390;-84
2021/07/04 12:22:55;;;;;;;0.40;0.30;;;23.80;92.80;;;;;;5104485;28;20416;-83
2021/07/04 12:25:27;;;;;;;0.40;0.30;;;23.80;93.60;;;;;;5112349;28;20437;-88
2021/07/04 12:28:12;;;;;;;0.40;0.20;;;23.70;94.00;;;;;;5108773;28;20479;-86
2021/07/04 12:30:42;;;;;;;0.40;0.30;;;23.50;95.20;;;;;;5112922;28;20391;-86
2021/07/04 12:33:16;;;;;;;0.40;0.30;;;23.50;93.90;;;;;;5102053;28;20819;-86
2021/07/04 12:35:54;;;;;;;0.40;0.30;;;23.40;94.90;;;;;;5103441;28;20384;-84
2021/07/04 12:38:27;;;;;;;0.40;0.30;;;23.50;95.30;;;;;;5101077;28;20805;-84
2021/07/04 12:41:02;;;;;;;0.40;0.30;;;23.50;95.80;;;;;;5100887;28;20905;-85
2021/07/04 12:43:36;;;;;;;0.40;0.20;;;23.50;94.40;;;;;;5100909;28;20781;-86
2021/07/04 12:46:27;;;;;;;0.40;0.20;;;23.50;94.70;;;;;;5099840;28;20394;-86
2021/07/04 12:48:56;;;;;;;0.40;0.30;;;23.60;94.50;;;;;;5074415;28;20758;-85
2021/07/04 12:51:34;;;;;;;0.40;0.20;;;23.60;93.30;;;;;;5077215;28;20785;-83
2021/07/04 12:54:01;;;;;;;0.40;0.30;;;23.70;93.80;;;;;;5112196;28;20836;-83
2021/07/04 12:56:32;;;;;;;0.40;0.20;;;23.50;94.30;;;;;;5112004;28;20383;-85